KVDI/VDI METAR and TAF weather

Enter ICAO airport designator
Station Type Date Time Source
KVDI METAR 2022/12/08 13:15 UTC NOAA

KVDI 081315Z AUTO 00000KT 7SM CLR 17/17 A3023 RMK AO2


Station Type Date Time Source
KVDI Decoded METAR 2022/12/08 13:15 UTC NOAA

Vidalia, Vidalia Municipal Airport, GA, United States (KVDI) 32-11-33N 082-22-19W
Dec 08, 2022 - 08:15 AM EST / 2022.12.08 1315 UTC
Wind: Calm:0
Visibility: 7 mile(s):0
Sky conditions: clear
Temperature: 62 F (17 C)
Dew Point: 62 F (17 C)
Relative Humidity: 100%
Pressure (altimeter): 30.23 in. Hg (1023 hPa)
ob: KVDI 081315Z AUTO 00000KT 7SM CLR 17/17 A3023 RMK AO2
cycle: 13

Station Type Date Time Source
KVDI TAF UTC NOAA

Error!

Example: see airport list